sensor_id;sensor_type;location;lat;lon;timestamp;temperature;humidity
32753;DHT22;19121;52.428;10.816;2023-03-14T00:01:39;19.80;44.10
32753;DHT22;19121;52.428;10.816;2023-03-14T00:04:04;19.80;44.10
32753;DHT22;19121;52.428;10.816;2023-03-14T00:06:30;19.80;44.10
32753;DHT22;19121;52.428;10.816;2023-03-14T00:08:56;19.80;44.10
32753;DHT22;19121;52.428;10.816;2023-03-14T00:11:22;19.80;44.10
32753;DHT22;19121;52.428;10.816;2023-03-14T00:13:48;19.70;44.10
32753;DHT22;19121;52.428;10.816;2023-03-14T00:16:13;19.70;44.10
32753;DHT22;19121;52.428;10.816;2023-03-14T00:18:39;19.70;44.10
32753;DHT22;19121;52.428;10.816;2023-03-14T00:21:05;19.70;44.10
32753;DHT22;19121;52.428;10.816;2023-03-14T00:23:31;19.70;44.10
32753;DHT22;19121;52.428;10.816;2023-03-14T00:25:58;19.70;44.10
32753;DHT22;19121;52.428;10.816;2023-03-14T00:28:23;19.70;44.10
32753;DHT22;19121;52.428;10.816;2023-03-14T00:30:49;19.70;44.10
32753;DHT22;19121;52.428;10.816;2023-03-14T00:33:14;19.70;44.10
32753;DHT22;19121;52.428;10.816;2023-03-14T00:35:39;19.70;44.10
32753;DHT22;19121;52.428;10.816;2023-03-14T00:38:05;19.70;44.10
32753;DHT22;19121;52.428;10.816;2023-03-14T00:40:30;19.70;44.10
32753;DHT22;19121;52.428;10.816;2023-03-14T00:42:56;19.70;44.10
32753;DHT22;19121;52.428;10.816;2023-03-14T00:45:21;19.70;44.10
32753;DHT22;19121;52.428;10.816;2023-03-14T00:47:46;19.70;44.10
32753;DHT22;19121;52.428;10.816;2023-03-14T00:50:12;19.60;44.10
32753;DHT22;19121;52.428;10.816;2023-03-14T00:52:37;19.70;44.10
32753;DHT22;19121;52.428;10.816;2023-03-14T00:55:03;19.60;44.10
32753;DHT22;19121;52.428;10.816;2023-03-14T00:57:29;19.70;44.10
32753;DHT22;19121;52.428;10.816;2023-03-14T00:59:54;19.60;44.10
32753;DHT22;19121;52.428;10.816;2023-03-14T01:02:19;19.60;44.10
32753;DHT22;19121;52.428;10.816;2023-03-14T01:04:47;19.60;44.10
32753;DHT22;19121;52.428;10.816;2023-03-14T01:07:12;19.60;44.10
32753;DHT22;19121;52.428;10.816;2023-03-14T01:09:38;19.60;44.10
32753;DHT22;19121;52.428;10.816;2023-03-14T01:12:03;19.60;44.10
32753;DHT22;19121;52.428;10.816;2023-03-14T01:14:28;19.60;44.10
32753;DHT22;19121;52.428;10.816;2023-03-14T01:16:54;19.60;44.10
32753;DHT22;19121;52.428;10.816;2023-03-14T01:19:26;19.60;44.10
32753;DHT22;19121;52.428;10.816;2023-03-14T01:21:51;19.60;44.10
32753;DHT22;19121;52.428;10.816;2023-03-14T01:24:17;19.50;44.10
32753;DHT22;19121;52.428;10.816;2023-03-14T01:26:42;19.60;44.10
32753;DHT22;19121;52.428;10.816;2023-03-14T01:29:07;19.50;44.10
32753;DHT22;19121;52.428;10.816;2023-03-14T01:31:33;19.50;44.10
32753;DHT22;19121;52.428;10.816;2023-03-14T01:33:58;19.60;44.20
32753;DHT22;19121;52.428;10.816;2023-03-14T01:36:24;19.50;44.20
32753;DHT22;19121;52.428;10.816;2023-03-14T01:38:49;19.50;44.20
32753;DHT22;19121;52.428;10.816;2023-03-14T01:41:15;19.50;44.20
32753;DHT22;19121;52.428;10.816;2023-03-14T01:43:42;19.50;44.20
32753;DHT22;19121;52.428;10.816;2023-03-14T01:51:19;19.50;44.20
32753;DHT22;19121;52.428;10.816;2023-03-14T01:53:46;19.50;44.20
32753;DHT22;19121;52.428;10.816;2023-03-14T01:56:13;19.50;44.20
32753;DHT22;19121;52.428;10.816;2023-03-14T01:58:40;19.50;44.20
32753;DHT22;19121;52.428;10.816;2023-03-14T02:01:06;19.50;44.20
32753;DHT22;19121;52.428;10.816;2023-03-14T02:03:35;19.50;44.20
32753;DHT22;19121;52.428;10.816;2023-03-14T02:06:03;19.40;44.10
32753;DHT22;19121;52.428;10.816;2023-03-14T02:08:29;19.40;44.20
32753;DHT22;19121;52.428;10.816;2023-03-14T02:10:56;19.40;44.10
32753;DHT22;19121;52.428;10.816;2023-03-14T02:13:21;19.40;44.10
32753;DHT22;19121;52.428;10.816;2023-03-14T02:15:47;19.40;44.10
32753;DHT22;19121;52.428;10.816;2023-03-14T02:18:13;19.40;44.20
32753;DHT22;19121;52.428;10.816;2023-03-14T02:23:15;19.40;44.20
32753;DHT22;19121;52.428;10.816;2023-03-14T02:25:48;19.40;44.20
32753;DHT22;19121;52.428;10.816;2023-03-14T02:28:16;19.40;44.10
32753;DHT22;19121;52.428;10.816;2023-03-14T02:30:42;19.40;44.20
32753;DHT22;19121;52.428;10.816;2023-03-14T02:33:11;19.40;44.10
32753;DHT22;19121;52.428;10.816;2023-03-14T02:35:42;19.40;44.10
32753;DHT22;19121;52.428;10.816;2023-03-14T02:38:17;19.40;44.10
32753;DHT22;19121;52.428;10.816;2023-03-14T02:40:44;19.40;44.10
32753;DHT22;19121;52.428;10.816;2023-03-14T02:43:10;19.40;44.20
32753;DHT22;19121;52.428;10.816;2023-03-14T02:45:45;19.40;44.20
32753;DHT22;19121;52.428;10.816;2023-03-14T02:48:13;19.40;44.20
32753;DHT22;19121;52.428;10.816;2023-03-14T02:50:39;19.40;44.20
32753;DHT22;19121;52.428;10.816;2023-03-14T02:53:04;19.40;44.10
32753;DHT22;19121;52.428;10.816;2023-03-14T02:55:30;19.40;44.10
32753;DHT22;19121;52.428;10.816;2023-03-14T02:57:55;19.40;44.20
32753;DHT22;19121;52.428;10.816;2023-03-14T03:00:21;19.40;44.20
32753;DHT22;19121;52.428;10.816;2023-03-14T03:02:46;19.40;44.20
32753;DHT22;19121;52.428;10.816;2023-03-14T03:05:12;19.40;44.20
32753;DHT22;19121;52.428;10.816;2023-03-14T03:07:37;19.30;44.10
32753;DHT22;19121;52.428;10.816;2023-03-14T03:10:03;19.30;44.20
32753;DHT22;19121;52.428;10.816;2023-03-14T03:12:29;19.30;44.20
32753;DHT22;19121;52.428;10.816;2023-03-14T03:14:54;19.30;44.20
32753;DHT22;19121;52.428;10.816;2023-03-14T03:17:19;19.30;44.20
32753;DHT22;19121;52.428;10.816;2023-03-14T03:19:45;19.30;44.20
32753;DHT22;19121;52.428;10.816;2023-03-14T03:22:10;19.30;44.20
32753;DHT22;19121;52.428;10.816;2023-03-14T03:24:36;19.30;44.20
32753;DHT22;19121;52.428;10.816;2023-03-14T03:27:01;19.30;44.20
32753;DHT22;19121;52.428;10.816;2023-03-14T03:29:27;19.30;44.20
32753;DHT22;19121;52.428;10.816;2023-03-14T03:31:52;19.30;44.30
32753;DHT22;19121;52.428;10.816;2023-03-14T03:34:18;19.30;44.20
32753;DHT22;19121;52.428;10.816;2023-03-14T03:36:43;19.30;44.30
32753;DHT22;19121;52.428;10.816;2023-03-14T03:39:08;19.30;44.20
32753;DHT22;19121;52.428;10.816;2023-03-14T03:41:34;19.30;44.20
32753;DHT22;19121;52.428;10.816;2023-03-14T03:43:59;19.30;44.20
32753;DHT22;19121;52.428;10.816;2023-03-14T03:46:25;19.30;44.30
32753;DHT22;19121;52.428;10.816;2023-03-14T03:48:57;19.30;44.30
32753;DHT22;19121;52.428;10.816;2023-03-14T03:51:23;19.30;44.30
32753;DHT22;19121;52.428;10.816;2023-03-14T03:53:49;19.30;44.30
32753;DHT22;19121;52.428;10.816;2023-03-14T03:56:14;19.30;44.20
32753;DHT22;19121;52.428;10.816;2023-03-14T03:58:40;19.30;44.20
32753;DHT22;19121;52.428;10.816;2023-03-14T04:01:07;19.40;44.30
32753;DHT22;19121;52.428;10.816;2023-03-14T04:03:32;19.30;44.30
32753;DHT22;19121;52.428;10.816;2023-03-14T04:06:02;19.30;44.30
32753;DHT22;19121;52.428;10.816;2023-03-14T04:08:28;19.30;44.30
32753;DHT22;19121;52.428;10.816;2023-03-14T04:10:55;19.40;44.40
32753;DHT22;19121;52.428;10.816;2023-03-14T04:13:20;19.30;44.30
32753;DHT22;19121;52.428;10.816;2023-03-14T04:15:46;19.30;44.30
32753;DHT22;19121;52.428;10.816;2023-03-14T04:18:11;19.40;44.40
32753;DHT22;19121;52.428;10.816;2023-03-14T04:20:36;19.30;44.30
32753;DHT22;19121;52.428;10.816;2023-03-14T04:23:02;19.30;44.30
32753;DHT22;19121;52.428;10.816;2023-03-14T04:25:27;19.30;44.30
32753;DHT22;19121;52.428;10.816;2023-03-14T04:27:53;19.40;44.40
32753;DHT22;19121;52.428;10.816;2023-03-14T04:30:18;19.30;44.30
32753;DHT22;19121;52.428;10.816;2023-03-14T04:32:43;19.30;44.40
32753;DHT22;19121;52.428;10.816;2023-03-14T04:35:09;19.30;44.40
32753;DHT22;19121;52.428;10.816;2023-03-14T04:37:34;19.30;44.40
32753;DHT22;19121;52.428;10.816;2023-03-14T04:40:00;19.30;44.30
32753;DHT22;19121;52.428;10.816;2023-03-14T04:42:25;19.30;44.40
32753;DHT22;19121;52.428;10.816;2023-03-14T04:44:51;19.30;44.40
32753;DHT22;19121;52.428;10.816;2023-03-14T04:47:16;19.30;44.40
32753;DHT22;19121;52.428;10.816;2023-03-14T04:49:42;19.30;44.40
32753;DHT22;19121;52.428;10.816;2023-03-14T04:52:07;19.30;45.00
32753;DHT22;19121;52.428;10.816;2023-03-14T04:54:33;19.30;44.40
32753;DHT22;19121;52.428;10.816;2023-03-14T04:56:58;19.30;44.40
32753;DHT22;19121;52.428;10.816;2023-03-14T04:59:24;19.40;44.40
32753;DHT22;19121;52.428;10.816;2023-03-14T05:01:49;19.30;44.40
32753;DHT22;19121;52.428;10.816;2023-03-14T05:04:15;19.30;44.40
32753;DHT22;19121;52.428;10.816;2023-03-14T05:06:40;19.30;44.40
32753;DHT22;19121;52.428;10.816;2023-03-14T05:09:07;19.30;44.40
32753;DHT22;19121;52.428;10.816;2023-03-14T05:11:33;19.30;44.40
32753;DHT22;19121;52.428;10.816;2023-03-14T05:13:58;19.30;44.40
32753;DHT22;19121;52.428;10.816;2023-03-14T05:16:24;19.30;44.40
32753;DHT22;19121;52.428;10.816;2023-03-14T05:18:50;19.30;44.40
32753;DHT22;19121;52.428;10.816;2023-03-14T05:21:15;19.30;44.40
32753;DHT22;19121;52.428;10.816;2023-03-14T05:23:41;19.30;44.50
32753;DHT22;19121;52.428;10.816;2023-03-14T05:26:06;19.30;44.50
32753;DHT22;19121;52.428;10.816;2023-03-14T05:28:31;19.30;44.50
32753;DHT22;19121;52.428;10.816;2023-03-14T05:30:57;19.30;44.50
32753;DHT22;19121;52.428;10.816;2023-03-14T05:33:22;19.40;44.50
32753;DHT22;19121;52.428;10.816;2023-03-14T05:35:48;19.30;44.50
32753;DHT22;19121;52.428;10.816;2023-03-14T05:38:13;19.30;44.50
32753;DHT22;19121;52.428;10.816;2023-03-14T05:40:39;19.30;44.60
32753;DHT22;19121;52.428;10.816;2023-03-14T05:43:04;19.30;44.50
32753;DHT22;19121;52.428;10.816;2023-03-14T05:45:29;19.30;44.50
32753;DHT22;19121;52.428;10.816;2023-03-14T05:47:55;19.30;44.50
32753;DHT22;19121;52.428;10.816;2023-03-14T05:50:20;19.30;44.50
32753;DHT22;19121;52.428;10.816;2023-03-14T05:52:46;19.40;44.50
32753;DHT22;19121;52.428;10.816;2023-03-14T05:55:11;19.30;44.50
32753;DHT22;19121;52.428;10.816;2023-03-14T05:57:36;19.40;44.60
32753;DHT22;19121;52.428;10.816;2023-03-14T06:00:02;19.30;44.50
32753;DHT22;19121;52.428;10.816;2023-03-14T06:02:28;19.40;44.60
32753;DHT22;19121;52.428;10.816;2023-03-14T06:04:53;19.40;44.60
32753;DHT22;19121;52.428;10.816;2023-03-14T06:07:18;19.40;44.60
32753;DHT22;19121;52.428;10.816;2023-03-14T06:09:44;19.40;44.60
32753;DHT22;19121;52.428;10.816;2023-03-14T06:12:09;19.40;44.60
32753;DHT22;19121;52.428;10.816;2023-03-14T06:14:34;19.40;44.60
32753;DHT22;19121;52.428;10.816;2023-03-14T06:17:00;19.40;44.60
32753;DHT22;19121;52.428;10.816;2023-03-14T06:19:25;19.40;44.70
32753;DHT22;19121;52.428;10.816;2023-03-14T06:21:51;19.40;44.60
32753;DHT22;19121;52.428;10.816;2023-03-14T06:24:16;19.40;44.60
32753;DHT22;19121;52.428;10.816;2023-03-14T06:26:42;19.40;44.60
32753;DHT22;19121;52.428;10.816;2023-03-14T06:29:07;19.40;44.60
32753;DHT22;19121;52.428;10.816;2023-03-14T06:31:33;19.40;44.60
32753;DHT22;19121;52.428;10.816;2023-03-14T06:33:58;19.40;44.60
32753;DHT22;19121;52.428;10.816;2023-03-14T06:36:24;19.40;44.60
32753;DHT22;19121;52.428;10.816;2023-03-14T06:38:49;19.40;44.60
32753;DHT22;19121;52.428;10.816;2023-03-14T06:41:15;19.40;44.70
32753;DHT22;19121;52.428;10.816;2023-03-14T06:43:40;19.40;44.70
32753;DHT22;19121;52.428;10.816;2023-03-14T06:46:06;19.40;44.70
32753;DHT22;19121;52.428;10.816;2023-03-14T06:48:31;19.50;44.70
32753;DHT22;19121;52.428;10.816;2023-03-14T06:50:57;19.50;44.60
32753;DHT22;19121;52.428;10.816;2023-03-14T06:53:22;19.60;44.60
32753;DHT22;19121;52.428;10.816;2023-03-14T06:55:48;19.60;44.60
32753;DHT22;19121;52.428;10.816;2023-03-14T06:58:13;19.70;44.40
32753;DHT22;19121;52.428;10.816;2023-03-14T07:00:39;19.70;44.30
32753;DHT22;19121;52.428;10.816;2023-03-14T07:03:04;19.80;44.20
32753;DHT22;19121;52.428;10.816;2023-03-14T07:05:29;19.90;44.40
32753;DHT22;19121;52.428;10.816;2023-03-14T07:07:55;20.00;44.50
32753;DHT22;19121;52.428;10.816;2023-03-14T07:10:21;20.10;44.80
32753;DHT22;19121;52.428;10.816;2023-03-14T07:12:46;20.20;44.70
32753;DHT22;19121;52.428;10.816;2023-03-14T07:15:11;20.30;45.00
32753;DHT22;19121;52.428;10.816;2023-03-14T07:17:37;20.30;45.10
32753;DHT22;19121;52.428;10.816;2023-03-14T07:20:03;20.30;44.80
32753;DHT22;19121;52.428;10.816;2023-03-14T07:22:30;20.40;45.00
32753;DHT22;19121;52.428;10.816;2023-03-14T07:24:55;20.40;45.10
32753;DHT22;19121;52.428;10.816;2023-03-14T07:27:21;20.50;45.10
32753;DHT22;19121;52.428;10.816;2023-03-14T07:29:47;20.50;45.20
32753;DHT22;19121;52.428;10.816;2023-03-14T07:32:12;20.60;45.10
32753;DHT22;19121;52.428;10.816;2023-03-14T07:34:43;20.70;45.10
32753;DHT22;19121;52.428;10.816;2023-03-14T07:37:08;20.70;44.90
32753;DHT22;19121;52.428;10.816;2023-03-14T07:39:34;20.80;44.60
32753;DHT22;19121;52.428;10.816;2023-03-14T07:42:00;20.90;44.40
32753;DHT22;19121;52.428;10.816;2023-03-14T07:44:25;20.90;44.20
32753;DHT22;19121;52.428;10.816;2023-03-14T07:46:51;21.00;44.50
32753;DHT22;19121;52.428;10.816;2023-03-14T07:49:16;21.00;44.30
32753;DHT22;19121;52.428;10.816;2023-03-14T07:51:42;21.10;44.20
32753;DHT22;19121;52.428;10.816;2023-03-14T07:54:09;21.10;44.60
32753;DHT22;19121;52.428;10.816;2023-03-14T07:56:34;21.20;44.40
32753;DHT22;19121;52.428;10.816;2023-03-14T07:59:00;21.20;44.60
32753;DHT22;19121;52.428;10.816;2023-03-14T08:01:26;21.30;44.30
32753;DHT22;19121;52.428;10.816;2023-03-14T08:03:51;21.30;43.90
32753;DHT22;19121;52.428;10.816;2023-03-14T08:06:16;21.40;44.00
32753;DHT22;19121;52.428;10.816;2023-03-14T08:08:42;21.40;43.90
32753;DHT22;19121;52.428;10.816;2023-03-14T08:11:07;21.40;44.10
32753;DHT22;19121;52.428;10.816;2023-03-14T08:13:36;21.40;44.20
32753;DHT22;19121;52.428;10.816;2023-03-14T08:16:01;21.40;44.80
32753;DHT22;19121;52.428;10.816;2023-03-14T08:18:27;21.40;44.20
32753;DHT22;19121;52.428;10.816;2023-03-14T08:20:52;21.50;44.20
32753;DHT22;19121;52.428;10.816;2023-03-14T08:23:18;21.50;44.40
32753;DHT22;19121;52.428;10.816;2023-03-14T08:25:43;21.50;44.40
32753;DHT22;19121;52.428;10.816;2023-03-14T08:28:08;21.50;44.40
32753;DHT22;19121;52.428;10.816;2023-03-14T08:30:34;21.50;44.70
32753;DHT22;19121;52.428;10.816;2023-03-14T08:32:59;21.50;44.70
32753;DHT22;19121;52.428;10.816;2023-03-14T08:35:25;21.60;44.60
32753;DHT22;19121;52.428;10.816;2023-03-14T08:37:50;21.50;44.50
32753;DHT22;19121;52.428;10.816;2023-03-14T08:40:17;21.50;44.60
32753;DHT22;19121;52.428;10.816;2023-03-14T08:42:42;21.60;44.60
32753;DHT22;19121;52.428;10.816;2023-03-14T08:45:08;21.60;44.70
32753;DHT22;19121;52.428;10.816;2023-03-14T08:47:34;21.60;44.50
32753;DHT22;19121;52.428;10.816;2023-03-14T08:49:59;21.50;44.50
32753;DHT22;19121;52.428;10.816;2023-03-14T08:52:27;21.50;44.70
32753;DHT22;19121;52.428;10.816;2023-03-14T08:54:52;21.60;44.60
32753;DHT22;19121;52.428;10.816;2023-03-14T08:57:17;21.60;44.60
32753;DHT22;19121;52.428;10.816;2023-03-14T08:59:43;21.50;44.40
32753;DHT22;19121;52.428;10.816;2023-03-14T09:02:10;21.60;44.50
32753;DHT22;19121;52.428;10.816;2023-03-14T09:04:35;21.50;44.50
32753;DHT22;19121;52.428;10.816;2023-03-14T09:07:01;21.50;44.50
32753;DHT22;19121;52.428;10.816;2023-03-14T09:09:26;21.60;44.50
32753;DHT22;19121;52.428;10.816;2023-03-14T09:11:52;21.60;44.30
32753;DHT22;19121;52.428;10.816;2023-03-14T09:14:17;21.60;44.20
32753;DHT22;19121;52.428;10.816;2023-03-14T09:16:43;21.50;44.10
32753;DHT22;19121;52.428;10.816;2023-03-14T09:19:08;21.60;44.10
32753;DHT22;19121;52.428;10.816;2023-03-14T09:21:34;21.60;44.10
32753;DHT22;19121;52.428;10.816;2023-03-14T09:23:59;21.60;44.10
32753;DHT22;19121;52.428;10.816;2023-03-14T09:26:25;21.60;44.00
32753;DHT22;19121;52.428;10.816;2023-03-14T09:28:50;21.60;44.00
32753;DHT22;19121;52.428;10.816;2023-03-14T09:31:16;21.60;44.00
32753;DHT22;19121;52.428;10.816;2023-03-14T09:33:41;21.60;44.00
32753;DHT22;19121;52.428;10.816;2023-03-14T09:36:07;21.60;44.00
32753;DHT22;19121;52.428;10.816;2023-03-14T09:38:33;21.60;44.00
32753;DHT22;19121;52.428;10.816;2023-03-14T09:40:59;21.60;44.00
32753;DHT22;19121;52.428;10.816;2023-03-14T09:43:25;21.60;44.10
32753;DHT22;19121;52.428;10.816;2023-03-14T09:45:53;21.60;44.10
32753;DHT22;19121;52.428;10.816;2023-03-14T09:48:22;21.60;44.20
32753;DHT22;19121;52.428;10.816;2023-03-14T09:50:50;21.60;44.20
32753;DHT22;19121;52.428;10.816;2023-03-14T09:53:18;21.60;44.10
32753;DHT22;19121;52.428;10.816;2023-03-14T09:55:48;21.60;44.10
32753;DHT22;19121;52.428;10.816;2023-03-14T09:58:21;21.70;44.20
32753;DHT22;19121;52.428;10.816;2023-03-14T10:00:47;21.70;44.20
32753;DHT22;19121;52.428;10.816;2023-03-14T10:03:19;21.80;44.10
32753;DHT22;19121;52.428;10.816;2023-03-14T10:05:46;21.80;44.10
32753;DHT22;19121;52.428;10.816;2023-03-14T10:08:13;21.80;44.10
32753;DHT22;19121;52.428;10.816;2023-03-14T10:10:38;21.80;44.00
32753;DHT22;19121;52.428;10.816;2023-03-14T10:15:38;21.80;44.00
32753;DHT22;19121;52.428;10.816;2023-03-14T10:18:09;21.80;44.00
32753;DHT22;19121;52.428;10.816;2023-03-14T10:25:29;21.90;44.10
32753;DHT22;19121;52.428;10.816;2023-03-14T10:27:55;21.90;44.00
32753;DHT22;19121;52.428;10.816;2023-03-14T10:30:34;21.90;44.00
32753;DHT22;19121;52.428;10.816;2023-03-14T10:33:19;22.00;44.10
32753;DHT22;19121;52.428;10.816;2023-03-14T10:35:45;22.00;44.00
32753;DHT22;19121;52.428;10.816;2023-03-14T10:38:12;22.00;44.00
32753;DHT22;19121;52.428;10.816;2023-03-14T10:40:39;22.00;44.00
32753;DHT22;19121;52.428;10.816;2023-03-14T10:43:05;22.00;44.00
32753;DHT22;19121;52.428;10.816;2023-03-14T10:47:58;22.10;44.00
32753;DHT22;19121;52.428;10.816;2023-03-14T10:50:25;22.10;44.00
32753;DHT22;19121;52.428;10.816;2023-03-14T10:52:52;22.10;44.00
32753;DHT22;19121;52.428;10.816;2023-03-14T10:55:17;22.10;44.00
32753;DHT22;19121;52.428;10.816;2023-03-14T10:57:43;22.10;44.70
32753;DHT22;19121;52.428;10.816;2023-03-14T11:00:22;22.10;44.00
32753;DHT22;19121;52.428;10.816;2023-03-14T11:07:45;22.00;44.10
32753;DHT22;19121;52.428;10.816;2023-03-14T11:10:13;22.00;44.20
32753;DHT22;19121;52.428;10.816;2023-03-14T11:12:49;22.00;44.20
32753;DHT22;19121;52.428;10.816;2023-03-14T11:20:38;22.00;44.30
32753;DHT22;19121;52.428;10.816;2023-03-14T11:23:14;22.00;44.30
32753;DHT22;19121;52.428;10.816;2023-03-14T11:25:43;22.00;44.30
32753;DHT22;19121;52.428;10.816;2023-03-14T11:28:16;22.00;44.30
32753;DHT22;19121;52.428;10.816;2023-03-14T11:30:50;22.10;44.30
32753;DHT22;19121;52.428;10.816;2023-03-14T11:33:27;22.10;44.40
32753;DHT22;19121;52.428;10.816;2023-03-14T11:36:09;22.10;44.30
32753;DHT22;19121;52.428;10.816;2023-03-14T11:41:04;22.10;44.30
32753;DHT22;19121;52.428;10.816;2023-03-14T11:43:35;22.10;44.30
32753;DHT22;19121;52.428;10.816;2023-03-14T11:46:07;22.10;44.30
32753;DHT22;19121;52.428;10.816;2023-03-14T11:48:45;22.20;44.30
32753;DHT22;19121;52.428;10.816;2023-03-14T11:51:23;22.10;44.30
32753;DHT22;19121;52.428;10.816;2023-03-14T11:56:32;22.10;44.30
32753;DHT22;19121;52.428;10.816;2023-03-14T11:59:03;22.10;44.40
32753;DHT22;19121;52.428;10.816;2023-03-14T12:02:12;22.10;44.40
32753;DHT22;19121;52.428;10.816;2023-03-14T12:07:03;22.10;44.40
32753;DHT22;19121;52.428;10.816;2023-03-14T12:09:32;22.10;44.30
32753;DHT22;19121;52.428;10.816;2023-03-14T12:12:00;22.10;44.30
32753;DHT22;19121;52.428;10.816;2023-03-14T12:14:28;22.10;44.30
32753;DHT22;19121;52.428;10.816;2023-03-14T12:16:56;22.10;44.40
32753;DHT22;19121;52.428;10.816;2023-03-14T12:21:49;22.10;44.40
32753;DHT22;19121;52.428;10.816;2023-03-14T12:24:19;22.10;44.40
32753;DHT22;19121;52.428;10.816;2023-03-14T12:26:54;22.10;44.50
32753;DHT22;19121;52.428;10.816;2023-03-14T12:29:20;22.10;44.50
32753;DHT22;19121;52.428;10.816;2023-03-14T12:32:05;22.10;44.50
32753;DHT22;19121;52.428;10.816;2023-03-14T12:34:32;22.10;44.50
32753;DHT22;19121;52.428;10.816;2023-03-14T12:36:59;22.10;45.20
32753;DHT22;19121;52.428;10.816;2023-03-14T12:42:01;22.00;44.50
32753;DHT22;19121;52.428;10.816;2023-03-14T12:49:39;22.00;44.50
32753;DHT22;19121;52.428;10.816;2023-03-14T12:52:11;22.00;44.60
32753;DHT22;19121;52.428;10.816;2023-03-14T12:57:25;22.00;44.60
32753;DHT22;19121;52.428;10.816;2023-03-14T12:59:52;22.00;44.60
32753;DHT22;19121;52.428;10.816;2023-03-14T13:02:21;22.00;44.60
32753;DHT22;19121;52.428;10.816;2023-03-14T13:04:52;22.00;44.60
32753;DHT22;19121;52.428;10.816;2023-03-14T13:09:51;21.90;44.90
32753;DHT22;19121;52.428;10.816;2023-03-14T13:12:19;22.00;44.70
32753;DHT22;19121;52.428;10.816;2023-03-14T13:14:48;21.90;44.60
32753;DHT22;19121;52.428;10.816;2023-03-14T13:17:14;21.90;44.60
32753;DHT22;19121;52.428;10.816;2023-03-14T13:19:41;21.90;44.70
32753;DHT22;19121;52.428;10.816;2023-03-14T13:22:21;21.90;44.80
32753;DHT22;19121;52.428;10.816;2023-03-14T13:24:48;21.90;44.80
32753;DHT22;19121;52.428;10.816;2023-03-14T13:27:17;21.80;44.70
32753;DHT22;19121;52.428;10.816;2023-03-14T13:29:43;21.80;44.80
32753;DHT22;19121;52.428;10.816;2023-03-14T13:32:17;21.80;44.80
32753;DHT22;19121;52.428;10.816;2023-03-14T13:34:44;21.80;44.90
32753;DHT22;19121;52.428;10.816;2023-03-14T13:37:15;21.80;44.90
32753;DHT22;19121;52.428;10.816;2023-03-14T13:39:40;21.80;44.90
32753;DHT22;19121;52.428;10.816;2023-03-14T13:42:10;21.80;44.90
32753;DHT22;19121;52.428;10.816;2023-03-14T13:44:39;21.80;44.90
32753;DHT22;19121;52.428;10.816;2023-03-14T13:47:09;21.80;44.90
32753;DHT22;19121;52.428;10.816;2023-03-14T13:49:35;21.80;45.50
32753;DHT22;19121;52.428;10.816;2023-03-14T13:52:02;21.80;44.90
32753;DHT22;19121;52.428;10.816;2023-03-14T13:54:29;21.80;44.90
32753;DHT22;19121;52.428;10.816;2023-03-14T13:57:03;21.80;44.90
32753;DHT22;19121;52.428;10.816;2023-03-14T13:59:30;21.80;45.00
32753;DHT22;19121;52.428;10.816;2023-03-14T14:01:59;21.80;44.90
32753;DHT22;19121;52.428;10.816;2023-03-14T14:04:28;21.70;45.00
32753;DHT22;19121;52.428;10.816;2023-03-14T14:06:57;21.70;44.90
32753;DHT22;19121;52.428;10.816;2023-03-14T14:09:27;21.70;45.00
32753;DHT22;19121;52.428;10.816;2023-03-14T14:14:21;21.70;45.10
32753;DHT22;19121;52.428;10.816;2023-03-14T14:16:47;21.70;45.10
32753;DHT22;19121;52.428;10.816;2023-03-14T14:19:12;21.70;45.20
32753;DHT22;19121;52.428;10.816;2023-03-14T14:21:38;21.70;45.20
32753;DHT22;19121;52.428;10.816;2023-03-14T14:24:04;21.70;45.20
32753;DHT22;19121;52.428;10.816;2023-03-14T14:26:30;21.70;45.30
32753;DHT22;19121;52.428;10.816;2023-03-14T14:29:00;21.70;45.30
32753;DHT22;19121;52.428;10.816;2023-03-14T14:31:26;21.70;45.30
32753;DHT22;19121;52.428;10.816;2023-03-14T14:33:55;21.70;46.00
32753;DHT22;19121;52.428;10.816;2023-03-14T14:39:06;21.60;45.30
32753;DHT22;19121;52.428;10.816;2023-03-14T14:41:35;21.60;45.30
32753;DHT22;19121;52.428;10.816;2023-03-14T14:44:04;21.60;45.30
32753;DHT22;19121;52.428;10.816;2023-03-14T14:46:30;21.60;45.30
32753;DHT22;19121;52.428;10.816;2023-03-14T14:49:04;21.60;45.30
32753;DHT22;19121;52.428;10.816;2023-03-14T14:51:32;21.60;45.30
32753;DHT22;19121;52.428;10.816;2023-03-14T14:54:03;21.60;45.40
32753;DHT22;19121;52.428;10.816;2023-03-14T14:56:28;21.60;45.50
32753;DHT22;19121;52.428;10.816;2023-03-14T14:58:58;21.60;45.60
32753;DHT22;19121;52.428;10.816;2023-03-14T15:01:25;21.60;45.60
32753;DHT22;19121;52.428;10.816;2023-03-14T15:03:55;21.60;45.60
32753;DHT22;19121;52.428;10.816;2023-03-14T15:06:21;21.60;45.50
32753;DHT22;19121;52.428;10.816;2023-03-14T15:08:49;21.60;45.50
32753;DHT22;19121;52.428;10.816;2023-03-14T15:11:18;21.60;45.60
32753;DHT22;19121;52.428;10.816;2023-03-14T15:13:44;21.60;45.60
32753;DHT22;19121;52.428;10.816;2023-03-14T15:16:12;21.60;45.70
32753;DHT22;19121;52.428;10.816;2023-03-14T15:18:39;21.60;45.70
32753;DHT22;19121;52.428;10.816;2023-03-14T15:21:04;21.60;45.70
32753;DHT22;19121;52.428;10.816;2023-03-14T15:23:30;21.60;45.60
32753;DHT22;19121;52.428;10.816;2023-03-14T15:25:56;21.60;45.70
32753;DHT22;19121;52.428;10.816;2023-03-14T15:28:22;21.60;45.70
32753;DHT22;19121;52.428;10.816;2023-03-14T15:30:49;21.60;45.60
32753;DHT22;19121;52.428;10.816;2023-03-14T15:33:14;21.60;46.20
32753;DHT22;19121;52.428;10.816;2023-03-14T15:35:40;21.50;45.60
32753;DHT22;19121;52.428;10.816;2023-03-14T15:38:10;21.60;45.60
32753;DHT22;19121;52.428;10.816;2023-03-14T15:40:35;21.60;45.60
32753;DHT22;19121;52.428;10.816;2023-03-14T15:43:01;21.60;45.50
32753;DHT22;19121;52.428;10.816;2023-03-14T15:45:27;21.50;45.40
32753;DHT22;19121;52.428;10.816;2023-03-14T15:47:53;21.60;45.40
32753;DHT22;19121;52.428;10.816;2023-03-14T15:50:18;21.50;45.40
32753;DHT22;19121;52.428;10.816;2023-03-14T15:52:44;21.50;45.30
32753;DHT22;19121;52.428;10.816;2023-03-14T15:55:09;21.50;45.30
32753;DHT22;19121;52.428;10.816;2023-03-14T15:57:36;21.50;45.20
32753;DHT22;19121;52.428;10.816;2023-03-14T16:00:01;21.50;45.20
32753;DHT22;19121;52.428;10.816;2023-03-14T16:02:29;21.50;45.20
32753;DHT22;19121;52.428;10.816;2023-03-14T16:04:55;21.50;45.20
32753;DHT22;19121;52.428;10.816;2023-03-14T16:07:20;21.50;45.20
32753;DHT22;19121;52.428;10.816;2023-03-14T16:09:46;21.50;45.20